﻿ProjectID	SampleID	SampleType	TaxonomyID	UniqCodeType	UniqCode	SampleName	ScientificName	CommonName	CollectionYear	CollectionMonth	CollectionDay	SamplingTimeStartEnd	SamplingTimeAMPM	SamplingDuration	WeatherStartEnd	CollectionRegion	CollectionCountry	CollectionArea	CollectionLatitudeFrom	CollectionLatitudeTo	CollectionLongitudeFrom	CollectionLongitudeTo	Sex	TissueOrgan	TissueLipid	TissueMoist	Weight	WeightUnit	Length	LengthUnit	LengthType	GrowthStage	Age	Disease	TemperatureStartEnd	WaterTemperatureStartEnd	pH	DO	EC	EC_temp	Salinity	SS	WaterDepthM	TransparencyM	WaterColor	SedimentTemperatureStartEnd	SedimentDepthM	SedimentAppearance	SedimentColor	SedimentSurfaceColor	SedimentOdor	SedimentImpurities	SedimentMoistureOnSiteAnalysis	IgnitionLossOnSiteAnalysis	SoilDepthM	FlowRate	MeanPM10	MeanTotalSuspendedParticles	HumidityStartEnd	WindDirectionStartEnd	WindSpeedMSStartEnd	AmountOfCollectedAirStartEnd	Remarks	RegisterDate	UpdateDate
PRA000061	SAA003650	ST003	9606			JPN2009_02	"Homo sapiens"	human	2009							Asia	Japan	Aichi	34.57805556	35.425	136.6708333	137.8380556	Female	"Breast milk"	4.3		48	kg	163	cm	Height	Adult	"31 y.o."																														"Urban area; Parity: 1; "	2018/3/16	2018/3/16
PRA000061	SAA003651	ST003	9606			JPN2010_01	"Homo sapiens"	human	2010							Asia	Japan	Aichi	34.57805556	35.425	136.6708333	137.8380556	Female	"Breast milk"	0.97		48	kg	163	cm	Height	Adult	"31 y.o."																														"Urban area; Parity: 1; "	2018/3/16	2018/3/16
PRA000061	SAA003652	ST003	9606			JPN2010_02	"Homo sapiens"	human	2010							Asia	Japan	Aichi	34.57805556	35.425	136.6708333	137.8380556	Female	"Breast milk"	2.7		52	kg	162	cm	Height	Adult	"30 y.o."																														"Urban area; Parity: 1; "	2018/3/16	2018/3/16
PRA000061	SAA003653	ST003	9606			JPN2011_01	"Homo sapiens"	human	2011							Asia	Japan	Kanagawa	35.12888889	35.67277778	138.9158333	139.7961111	Female	"Breast milk"	4.8		52	kg	161	cm	Height	Adult	"34 y.o."																														"Urban area; Parity: 2; "	2018/3/16	2018/3/16
PRA000061	SAA003654	ST003	9606			JPN2011_02	"Homo sapiens"	human	2011							Asia	Japan	Kanagawa	35.12888889	35.67277778	138.9158333	139.7961111	Female	"Breast milk"	3.2		52	kg	167	cm	Height	Adult	"34 y.o."																														"Urban area; Parity: 2; "	2018/3/16	2018/3/16
PRA000061	SAA003655	ST003	9606			JPN2011_03	"Homo sapiens"	human	2011							Asia	Japan	Kanagawa	35.12888889	35.67277778	138.9158333	139.7961111	Female	"Breast milk"	2.8		47	kg	156	cm	Height	Adult	"35 y.o."																														"Urban area; Parity: 2; "	2018/3/16	2018/3/16
PRA000061	SAA003656	ST003	9606			JPN2011_04	"Homo sapiens"	human	2011							Asia	Japan	Kanagawa	35.12888889	35.67277778	138.9158333	139.7961111	Female	"Breast milk"	2.4		45	kg	166	cm	Height	Adult	"34 y.o."																														"Urban area; Parity: 2; "	2018/3/16	2018/3/16
PRA000061	SAA003657	ST003	9606			JPN2011_06	"Homo sapiens"	human	2011							Asia	Japan	Kanagawa	35.12888889	35.67277778	138.9158333	139.7961111	Female	"Breast milk"	3.1		58	kg	158	cm	Height	Adult	"35 y.o."																														"Urban area; Parity: 2; "	2018/3/16	2018/3/16
PRA000061	SAA003658	ST003	9606			JPN2011_07	"Homo sapiens"	human	2011							Asia	Japan	Kanagawa	35.12888889	35.67277778	138.9158333	139.7961111	Female	"Breast milk"	1.8		54	kg	170	cm	Height	Adult	"33 y.o."																														"Urban area; Parity: 2; "	2018/3/16	2018/3/16
PRA000061	SAA003659	ST003	9606			JPN2011_08	"Homo sapiens"	human	2011							Asia	Japan	Kanagawa	35.12888889	35.67277778	138.9158333	139.7961111	Female	"Breast milk"	3.7		52	kg	163	cm	Height	Adult	"32 y.o."																														"Urban area; Parity: 2; "	2018/3/16	2018/3/16
PRA000061	SAA003660	ST003	9606			JPN2011_09	"Homo sapiens"	human	2011							Asia	Japan	Kanagawa	35.12888889	35.67277778	138.9158333	139.7961111	Female	"Breast milk"	1.3		49	kg	158.5	cm	Height	Adult	"38 y.o."																														"Urban area; Parity: 2; "	2018/3/16	2018/3/16
PRA000061	SAA003661	ST003	9606			JPN2011_10	"Homo sapiens"	human	2011							Asia	Japan	Kanagawa	35.12888889	35.67277778	138.9158333	139.7961111	Female	"Breast milk"	3.9		58	kg	163	cm	Height	Adult	"30 y.o."																														"Urban area; Parity: 1; "	2018/3/16	2018/3/16
PRA000061	SAA003662	ST003	9606			JPN2011_11	"Homo sapiens"	human	2011							Asia	Japan	Kanagawa	35.12888889	35.67277778	138.9158333	139.7961111	Female	"Breast milk"	3.5		50	kg	163	cm	Height	Adult	"40 y.o."																														"Urban area; Parity: 3; "	2018/3/16	2018/3/16
PRA000061	SAA003663	ST003	9606			JPN2011_13	"Homo sapiens"	human	2011							Asia	Japan	Gifu	35.13388889	36.465	136.2763889	137.6530556	Female	"Breast milk"	3.3		45	kg	155	cm	Height	Adult	"25 y.o."																														"Urban area; Parity: 1; "	2018/3/16	2018/3/16
PRA000061	SAA003664	ST003	9606			JPN2011_14	"Homo sapiens"	human	2011							Asia	Japan	Ehime	32.88472222	34.30166667	132.0125	133.6930556	Female	"Breast milk"	2.7		48	kg	157	cm	Height	Adult	"31 y.o."																														"Urban area; Parity: 1; "	2018/3/16	2018/3/16
PRA000061	SAA003665	ST003	9606			JPN2011_15	"Homo sapiens"	human	2011							Asia	Japan	Hokkaido	41.35194444	45.55722222	139.3344444	148.8930556	Female	"Breast milk"	8.8		44	kg	159	cm	Height	Adult	"28 y.o."																														"Urban area; Parity: 1; "	2018/3/16	2018/3/16
PRA000061	SAA003666	ST003	9606			JPN2011_16	"Homo sapiens"	human	2011							Asia	Japan	Hokkaido	41.35194444	45.55722222	139.3344444	148.8930556	Female	"Breast milk"	1.4		48	kg	158	cm	Height	Adult	"29 y.o."																														"Urban area; Parity: 2; "	2018/3/16	2018/3/16
PRA000061	SAA003667	ST003	9606			JPN2011_17	"Homo sapiens"	human	2011							Asia	Japan	Kanagawa	35.12888889	35.67277778	138.9158333	139.7961111	Female	"Breast milk"	0.46		45	kg	158	cm	Height	Adult	"31 y.o."																														"Urban area; Parity: 2; "	2018/3/16	2018/3/16
PRA000061	SAA003668	ST003	9606			JPN2011_18	"Homo sapiens"	human	2011							Asia	Japan	Kanagawa	35.12888889	35.67277778	138.9158333	139.7961111	Female	"Breast milk"	0.34		50	kg	150	cm	Height	Adult	"42 y.o."																														"Urban area; Parity: 2; "	2018/3/16	2018/3/16
PRA000061	SAA003669	ST003	9606			JPN2011_19	"Homo sapiens"	human	2011							Asia	Japan	Kanagawa	35.12888889	35.67277778	138.9158333	139.7961111	Female	"Breast milk"	4		46	kg	162	cm	Height	Adult	"35 y.o."																														"Urban area; Parity: 2; "	2018/3/16	2018/3/16
PRA000061	SAA003670	ST003	9606			L-02	"Homo sapiens"	human	2008							Asia	Philippines	Malate	14.556974	14.577616	120.980267	120.998927	Female	"Breast milk"	4.4		45	kg	150	cm	Height	Adult	"19 y.o."																														"Urban area; Parity: 1; "	2018/3/16	2018/3/16
PRA000061	SAA003671	ST003	9606			L-04	"Homo sapiens"	human	2008							Asia	Philippines	Malate	14.556974	14.577616	120.980267	120.998927	Female	"Breast milk"	2.2		46	kg	135	cm	Height	Adult	"23 y.o."																														"Urban area; Parity: 1; "	2018/3/16	2018/3/16
PRA000061	SAA003672	ST003	9606			L-05	"Homo sapiens"	human	2008							Asia	Philippines	Malate	14.556974	14.577616	120.980267	120.998927	Female	"Breast milk"	6.4		48	kg	165	cm	Height	Adult	"21 y.o."																														"Urban area; Parity: 1; "	2018/3/16	2018/3/16
PRA000061	SAA003673	ST003	9606			L-06	"Homo sapiens"	human	2008							Asia	Philippines	Malate	14.556974	14.577616	120.980267	120.998927	Female	"Breast milk"	3.7		40	kg	160	cm	Height	Adult	"45 y.o."																														"Urban area; Parity: 1; "	2018/3/16	2018/3/16
PRA000061	SAA003674	ST003	9606			L-07	"Homo sapiens"	human	2008							Asia	Philippines	Malate	14.556974	14.577616	120.980267	120.998927	Female	"Breast milk"	4		90	kg	167	cm	Height	Adult	"30 y.o."																														"Urban area; Parity: 1; "	2018/3/16	2018/3/16
PRA000061	SAA003675	ST003	9606			L-08	"Homo sapiens"	human	2008							Asia	Philippines	Malate	14.556974	14.577616	120.980267	120.998927	Female	"Breast milk"	4.5		75	kg	167	cm	Height	Adult	"23 y.o."																														"Urban area; Parity: 1; "	2018/3/16	2018/3/16
PRA000061	SAA003676	ST003	9606			L-10	"Homo sapiens"	human	2008							Asia	Philippines	Malate	14.556974	14.577616	120.980267	120.998927	Female	"Breast milk"	5.9		42	kg	155	cm	Height	Adult	"18 y.o."																														"Urban area; Parity: 1; "	2018/3/16	2018/3/16
PRA000061	SAA003677	ST003	9606			L-11	"Homo sapiens"	human	2008							Asia	Philippines	Malate	14.556974	14.577616	120.980267	120.998927	Female	"Breast milk"	2.3		54	kg	150	cm	Height	Adult	"32 y.o."																														"Urban area; Parity: 1; "	2018/3/16	2018/3/16
PRA000061	SAA003678	ST003	9606			L-12	"Homo sapiens"	human	2008							Asia	Philippines	Malate	14.556974	14.577616	120.980267	120.998927	Female	"Breast milk"	5.1		36.4	kg	150	cm	Height	Adult	"25 y.o."																														"Urban area; Parity: 1; "	2018/3/16	2018/3/16
PRA000061	SAA003679	ST003	9606			L-15	"Homo sapiens"	human	2008							Asia	Philippines	Malate	14.556974	14.577616	120.980267	120.998927	Female	"Breast milk"	6.3		40	kg	160	cm	Height	Adult	"22 y.o."																														"Urban area; Parity: 1; "	2018/3/16	2018/3/16
PRA000061	SAA003680	ST003	9606			L-16	"Homo sapiens"	human	2008							Asia	Philippines	Malate	14.556974	14.577616	120.980267	120.998927	Female	"Breast milk"	5.3		40	kg	159	cm	Height	Adult	"18 y.o."																														"Urban area; Parity: 1; "	2018/3/16	2018/3/16
PRA000061	SAA003681	ST003	9606			L-17	"Homo sapiens"	human	2008							Asia	Philippines	Malate	14.556974	14.577616	120.980267	120.998927	Female	"Breast milk"	7.5		45	kg	155	cm	Height	Adult	"38 y.o."																														"Urban area; Parity: 1; "	2018/3/16	2018/3/16
PRA000061	SAA003682	ST003	9606			L-18	"Homo sapiens"	human	2008							Asia	Philippines	Malate	14.556974	14.577616	120.980267	120.998927	Female	"Breast milk"	5.2		48	kg	157	cm	Height	Adult	"31 y.o."																														"Urban area; Parity: 1; "	2018/3/16	2018/3/16
PRA000061	SAA003683	ST003	9606			L-22	"Homo sapiens"	human	2008							Asia	Philippines	Malate	14.556974	14.577616	120.980267	120.998927	Female	"Breast milk"	4.7		41	kg	150	cm	Height	Adult	"31 y.o."																														"Urban area; Parity: 1; "	2018/3/16	2018/3/16
PRA000061	SAA003684	ST003	9606			L-25	"Homo sapiens"	human	2008							Asia	Philippines	Malate	14.556974	14.577616	120.980267	120.998927	Female	"Breast milk"	4		48	kg	150	cm	Height	Adult	"20 y.o."																														"Urban area; Parity: 1; "	2018/3/16	2018/3/16
PRA000061	SAA003685	ST003	9606			L-26	"Homo sapiens"	human	2008							Asia	Philippines	Malate	14.556974	14.577616	120.980267	120.998927	Female	"Breast milk"	3.1		60	kg	152	cm	Height	Adult	"23 y.o."																														"Urban area; Parity: 1; "	2018/3/16	2018/3/16
PRA000061	SAA003686	ST003	9606			L-27	"Homo sapiens"	human	2008							Asia	Philippines	Malate	14.556974	14.577616	120.980267	120.998927	Female	"Breast milk"	7.7		40	kg	157	cm	Height	Adult	"27 y.o."																														"Urban area; Parity: 1; "	2018/3/16	2018/3/16
PRA000061	SAA003687	ST003	9606			L-28	"Homo sapiens"	human	2008							Asia	Philippines	Malate	14.556974	14.577616	120.980267	120.998927	Female	"Breast milk"	8.5		39	kg	157	cm	Height	Adult	"20 y.o."																														"Urban area; Parity: 1; "	2018/3/16	2018/3/16
PRA000061	SAA003688	ST003	9606			L-29	"Homo sapiens"	human	2008							Asia	Philippines	Malate	14.556974	14.577616	120.980267	120.998927	Female	"Breast milk"	7.1		35	kg	150	cm	Height	Adult	"27 y.o."																														"Urban area; Parity: 1; "	2018/3/16	2018/3/16
PRA000061	SAA003689	ST003	9606			P-01	"Homo sapiens"	human	2008							Asia	Philippines	Payatas	14.69602	14.721497	121.087934	121.112468	Female	"Breast milk"	4.3		43	kg	160	cm	Height	Adult	"21 y.o."																														"Near a municipal waste dumping area; Parity: 2;"	2018/3/16	2018/3/16
PRA000061	SAA003690	ST003	9606			P-03	"Homo sapiens"	human	2008							Asia	Philippines	Payatas	14.69602	14.721497	121.087934	121.112468	Female	"Breast milk"	3.5		41	kg	180	cm	Height	Adult	"25 y.o."																														"Near a municipal waste dumping area; Parity: 2;"	2018/3/16	2018/3/16
PRA000061	SAA003691	ST003	9606			P-04	"Homo sapiens"	human	2008							Asia	Philippines	Payatas	14.69602	14.721497	121.087934	121.112468	Female	"Breast milk"	4.6		40	kg	157	cm	Height	Adult	"25 y.o."																														"Near a municipal waste dumping area; Parity: 2;"	2018/3/16	2018/3/16
PRA000061	SAA003692	ST003	9606			P-05	"Homo sapiens"	human	2008							Asia	Philippines	Payatas	14.69602	14.721497	121.087934	121.112468	Female	"Breast milk"	4.5		50	kg	160	cm	Height	Adult	"31 y.o."																														"Near a municipal waste dumping area; Parity: 3;"	2018/3/16	2018/3/16
PRA000061	SAA003693	ST003	9606			P-06	"Homo sapiens"	human	2008							Asia	Philippines	Payatas	14.69602	14.721497	121.087934	121.112468	Female	"Breast milk"	3.2		48	kg	150	cm	Height	Adult	"21 y.o."																														"Near a municipal waste dumping area; Parity: 3;"	2018/3/16	2018/3/16
PRA000061	SAA003694	ST003	9606			P-07	"Homo sapiens"	human	2008							Asia	Philippines	Payatas	14.69602	14.721497	121.087934	121.112468	Female	"Breast milk"	2.6		63	kg	152	cm	Height	Adult	"33 y.o."																														"Near a municipal waste dumping area; Parity: 3;"	2018/3/16	2018/3/16
PRA000061	SAA003695	ST003	9606			P-09	"Homo sapiens"	human	2008							Asia	Philippines	Payatas	14.69602	14.721497	121.087934	121.112468	Female	"Breast milk"	3.7		54	kg	157	cm	Height	Adult	"20 y.o."																														"Near a municipal waste dumping area; Parity: 3;"	2018/3/16	2018/3/16
PRA000061	SAA003696	ST003	9606			P-10	"Homo sapiens"	human	2008							Asia	Philippines	Payatas	14.69602	14.721497	121.087934	121.112468	Female	"Breast milk"	2.8		46	kg	155	cm	Height	Adult	"27 y.o."																														"Near a municipal waste dumping area; Parity: 4;"	2018/3/16	2018/3/16
PRA000061	SAA003697	ST003	9606			P-11	"Homo sapiens"	human	2008							Asia	Philippines	Payatas	14.69602	14.721497	121.087934	121.112468	Female	"Breast milk"	2.2		55	kg	170	cm	Height	Adult	"18 y.o."																														"Near a municipal waste dumping area; Parity: 4;"	2018/3/16	2018/3/16
PRA000061	SAA003698	ST003	9606			P-12	"Homo sapiens"	human	2008							Asia	Philippines	Payatas	14.69602	14.721497	121.087934	121.112468	Female	"Breast milk"	5.4		45	kg	157	cm	Height	Adult	"27 y.o."																														"Near a municipal waste dumping area; Parity: 5;"	2018/3/16	2018/3/16
PRA000061	SAA003699	ST003	9606			P-13	"Homo sapiens"	human	2008							Asia	Philippines	Payatas	14.69602	14.721497	121.087934	121.112468	Female	"Breast milk"	2.3		47	kg	163	cm	Height	Adult	"33 y.o."																														"Near a municipal waste dumping area; Parity: 6;"	2018/3/16	2018/3/16
PRA000061	SAA003700	ST003	9606			P-14	"Homo sapiens"	human	2008							Asia	Philippines	Payatas	14.69602	14.721497	121.087934	121.112468	Female	"Breast milk"	1.4		52	kg	157	cm	Height	Adult	"33 y.o."																														"Near a municipal waste dumping area; Parity: 7;"	2018/3/16	2018/3/16
PRA000061	SAA003701	ST003	9606			P-15	"Homo sapiens"	human	2008							Asia	Philippines	Payatas	14.69602	14.721497	121.087934	121.112468	Female	"Breast milk"	2.6		45	kg	157	cm	Height	Adult	"28 y.o."																														"Near a municipal waste dumping area; Parity: 2;"	2018/3/16	2018/3/16
PRA000061	SAA003702	ST003	9606			P-16	"Homo sapiens"	human	2008							Asia	Philippines	Payatas	14.69602	14.721497	121.087934	121.112468	Female	"Breast milk"	2.8		55	kg	163	cm	Height	Adult	"40 y.o."																														"Near a municipal waste dumping area; Parity: 2;"	2018/3/16	2018/3/16
PRA000061	SAA003703	ST003	9606			P-18	"Homo sapiens"	human	2008							Asia	Philippines	Payatas	14.69602	14.721497	121.087934	121.112468	Female	"Breast milk"	3.8		45	kg	157	cm	Height	Adult	"17 y.o."																														"Near a municipal waste dumping area; Parity: 2;"	2018/3/16	2018/3/16
PRA000061	SAA003704	ST003	9606			P-24	"Homo sapiens"	human	2008							Asia	Philippines	Payatas	14.69602	14.721497	121.087934	121.112468	Female	"Breast milk"	3.4		42	kg	157	cm	Height	Adult	"20 y.o."																														"Near a municipal waste dumping area; Parity: 2;"	2018/3/16	2018/3/16
PRA000061	SAA003705	ST003	9606			P-29	"Homo sapiens"	human	2008							Asia	Philippines	Payatas	14.69602	14.721497	121.087934	121.112468	Female	"Breast milk"	3.4		43	kg	160	cm	Height	Adult	"19 y.o."																														"Near a municipal waste dumping area; Parity: 3;"	2018/3/16	2018/3/16
PRA000061	SAA003706	ST003	9606			P-31	"Homo sapiens"	human	2008							Asia	Philippines	Payatas	14.69602	14.721497	121.087934	121.112468	Female	"Breast milk"	3.9		36	kg	150	cm	Height	Adult	"18 y.o."																														"Near a municipal waste dumping area; Parity: 4;"	2018/3/16	2018/3/16
PRA000061	SAA003707	ST003	9606			P-34	"Homo sapiens"	human	2008							Asia	Philippines	Payatas	14.69602	14.721497	121.087934	121.112468	Female	"Breast milk"	2.5		50	kg	155	cm	Height	Adult	"20 y.o."																														"Near a municipal waste dumping area; Parity: 4;"	2018/3/16	2018/3/16
PRA000061	SAA003708	ST003	9606			P-35	"Homo sapiens"	human	2008							Asia	Philippines	Payatas	14.69602	14.721497	121.087934	121.112468	Female	"Breast milk"	5.1		49	kg	145	cm	Height	Adult	"23 y.o."																														"Near a municipal waste dumping area; Parity: 4;"	2018/3/16	2018/3/16
PRA000061	SAA003709	ST003	9606			P-37	"Homo sapiens"	human	2008							Asia	Philippines	Payatas	14.69602	14.721497	121.087934	121.112468	Female	"Breast milk"	1.4		70	kg	157	cm	Height	Adult	"34 y.o."																														"Near a municipal waste dumping area; Parity: 5;"	2018/3/16	2018/3/16
PRA000061	SAA003710	ST003	9606			P-38	"Homo sapiens"	human	2008							Asia	Philippines	Payatas	14.69602	14.721497	121.087934	121.112468	Female	"Breast milk"	2.7		45	kg	150	cm	Height	Adult	"30 y.o."																														"Near a municipal waste dumping area; Parity: 7;"	2018/3/16	2018/3/16
PRA000061	SAA003711	ST003	9606			TH-01	"Homo sapiens"	human	2008							Asia	Vietnam	Hanoi	20.995249	21.049966	105.797843	105.876297	Female	"Breast milk"	3.4		56	kg	160	cm	Height	Adult	"31 y.o."																														"Suburban area, The capital of Vietnam; Parity: 2; "	2018/3/16	2018/3/16
PRA000061	SAA003712	ST003	9606			TH-02	"Homo sapiens"	human	2008							Asia	Vietnam	Hanoi	20.995249	21.049966	105.797843	105.876297	Female	"Breast milk"	3.2		52	kg	160	cm	Height	Adult	"27 y.o."																														"Suburban area, The capital of Vietnam; Parity: 2; "	2018/3/16	2018/3/16
PRA000061	SAA003713	ST003	9606			TH-03	"Homo sapiens"	human	2008							Asia	Vietnam	Hanoi	20.995249	21.049966	105.797843	105.876297	Female	"Breast milk"	2.1		47	kg	150	cm	Height	Adult	"24 y.o."																														"Suburban area, The capital of Vietnam; Parity: 2; "	2018/3/16	2018/3/16
PRA000061	SAA003714	ST003	9606			TH-04	"Homo sapiens"	human	2008							Asia	Vietnam	Hanoi	20.995249	21.049966	105.797843	105.876297	Female	"Breast milk"	3.6		45	kg	153	cm	Height	Adult	"28 y.o."																														"Suburban area, The capital of Vietnam; Parity: 2; "	2018/3/16	2018/3/16
PRA000061	SAA003715	ST003	9606			TH-05	"Homo sapiens"	human	2008							Asia	Vietnam	Hanoi	20.995249	21.049966	105.797843	105.876297	Female	"Breast milk"	4		53	kg	150	cm	Height	Adult	"29 y.o."																														"Suburban area, The capital of Vietnam; Parity: 1; "	2018/3/16	2018/3/16
PRA000061	SAA003716	ST003	9606			TH-06	"Homo sapiens"	human	2008							Asia	Vietnam	Hanoi	20.995249	21.049966	105.797843	105.876297	Female	"Breast milk"	5.3		65	kg	161	cm	Height	Adult	"32 y.o."																														"Suburban area, The capital of Vietnam; Parity: 3; "	2018/3/16	2018/3/16
PRA000061	SAA003717	ST003	9606			TH-07	"Homo sapiens"	human	2008							Asia	Vietnam	Hanoi	20.995249	21.049966	105.797843	105.876297	Female	"Breast milk"	5		54	kg	162	cm	Height	Adult	"21 y.o."																														"Suburban area, The capital of Vietnam; Parity: 1; "	2018/3/16	2018/3/16
PRA000061	SAA003718	ST003	9606			BD-01	"Homo sapiens"	human	2008							Asia	Vietnam	"Bui Dau"	20.92888889	20.93944444	106.0894444	106.1011111	Female	"Breast milk"	3.5		44	kg	157	cm	Height	Adult	"24 y.o."																														"E-waste recycling site; Parity: 1; "	2018/3/16	2018/3/16
PRA000061	SAA003719	ST003	9606			BD-02	"Homo sapiens"	human	2008							Asia	Vietnam	"Bui Dau"	20.92888889	20.93944444	106.0894444	106.1011111	Female	"Breast milk"	2.9		47	kg	155	cm	Height	Adult	"28 y.o."																														"E-waste recycling site; Parity: 1; "	2018/3/16	2018/3/16
PRA000061	SAA003720	ST003	9606			BD-03	"Homo sapiens"	human	2008							Asia	Vietnam	"Bui Dau"	20.92888889	20.93944444	106.0894444	106.1011111	Female	"Breast milk"	6.2		48	kg	148	cm	Height	Adult	"23 y.o."																														"E-waste recycling site; Parity: 2; "	2018/3/16	2018/3/16
PRA000061	SAA003721	ST003	9606			BD-04	"Homo sapiens"	human	2008							Asia	Vietnam	"Bui Dau"	20.92888889	20.93944444	106.0894444	106.1011111	Female	"Breast milk"	3.7		45	kg	155	cm	Height	Adult	"25 y.o."																														"E-waste recycling site; Parity: 1; "	2018/3/16	2018/3/16
PRA000061	SAA003722	ST003	9606			BD-05	"Homo sapiens"	human	2008							Asia	Vietnam	"Bui Dau"	20.92888889	20.93944444	106.0894444	106.1011111	Female	"Breast milk"	3.9		39	kg	155	cm	Height	Adult	"22 y.o."																														"E-waste recycling site; Parity: 1; "	2018/3/16	2018/3/16
PRA000061	SAA003723	ST003	9606			BD-06	"Homo sapiens"	human	2008							Asia	Vietnam	"Bui Dau"	20.92888889	20.93944444	106.0894444	106.1011111	Female	"Breast milk"	4.1		43	kg	157	cm	Height	Adult	"22 y.o."																														"E-waste recycling site; Parity: 1; "	2018/3/16	2018/3/16
PRA000061	SAA003724	ST003	9606			BD-07	"Homo sapiens"	human	2008							Asia	Vietnam	"Bui Dau"	20.92888889	20.93944444	106.0894444	106.1011111	Female	"Breast milk"	6		50	kg	150	cm	Height	Adult	"27 y.o."																														"E-waste recycling site; Parity: 2; "	2018/3/16	2018/3/16
PRA000061	SAA003725	ST003	9606			BD-08	"Homo sapiens"	human	2008							Asia	Vietnam	"Bui Dau"	20.92888889	20.93944444	106.0894444	106.1011111	Female	"Breast milk"	4.1		56	kg	152	cm	Height	Adult	"23 y.o."																														"E-waste recycling site; Parity: 1; "	2018/3/16	2018/3/16
PRA000061	SAA003726	ST003	9606			BD-09	"Homo sapiens"	human	2008							Asia	Vietnam	"Bui Dau"	20.92888889	20.93944444	106.0894444	106.1011111	Female	"Breast milk"	3.9		43	kg	150	cm	Height	Adult	"31 y.o."																														"E-waste recycling site; Parity: 2; "	2018/3/16	2018/3/16
PRA000061	SAA003727	ST003	9606			BD-10	"Homo sapiens"	human	2008							Asia	Vietnam	"Bui Dau"	20.92888889	20.93944444	106.0894444	106.1011111	Female	"Breast milk"	3.6		53	kg	158	cm	Height	Adult	"21 y.o."																														"E-waste recycling site; Parity: 1; "	2018/3/16	2018/3/16
PRA000061	SAA003728	ST003	9606			TM-01	"Homo sapiens"	human	2008							Asia	Vietnam	"Trang Minh"	20.773408	20.799126	106.608152	106.632915	Female	"Breast milk"	5		44	kg	156	cm	Height	Adult	"30 y.o."																														"E-waste recycling site; Parity: 2; "	2018/3/16	2018/3/16
PRA000061	SAA003729	ST003	9606			TM-02	"Homo sapiens"	human	2008							Asia	Vietnam	"Trang Minh"	20.773408	20.799126	106.608152	106.632915	Female	"Breast milk"	3.8		42	kg	149	cm	Height	Adult	"25 y.o."																														"E-waste recycling site; Parity: 2; "	2018/3/16	2018/3/16
PRA000061	SAA003730	ST003	9606			TM-04	"Homo sapiens"	human	2008							Asia	Vietnam	"Trang Minh"	20.773408	20.799126	106.608152	106.632915	Female	"Breast milk"	4		53	kg	160	cm	Height	Adult	"25 y.o."																														"E-waste recycling site; Parity: 2; "	2018/3/16	2018/3/16
PRA000061	SAA003731	ST003	9606			TM-05	"Homo sapiens"	human	2008							Asia	Vietnam	"Trang Minh"	20.773408	20.799126	106.608152	106.632915	Female	"Breast milk"	3.8		51	kg	155	cm	Height	Adult	"28 y.o."																														"E-waste recycling site; Parity: 2; "	2018/3/16	2018/3/16
PRA000061	SAA003732	ST003	9606			TM-08	"Homo sapiens"	human	2008							Asia	Vietnam	"Trang Minh"	20.773408	20.799126	106.608152	106.632915	Female	"Breast milk"	4		44	kg	155	cm	Height	Adult	"23 y.o."																														"E-waste recycling site; Parity: 2; "	2018/3/16	2018/3/16
PRA000061	SAA003733	ST003	9606			TM-09	"Homo sapiens"	human	2008							Asia	Vietnam	"Trang Minh"	20.773408	20.799126	106.608152	106.632915	Female	"Breast milk"	4.8		56	kg	156	cm	Height	Adult	"34 y.o."																														"E-waste recycling site; Parity: 2; "	2018/3/16	2018/3/16
PRA000061	SAA003734	ST003	9606			TM-10	"Homo sapiens"	human	2008							Asia	Vietnam	"Trang Minh"	20.773408	20.799126	106.608152	106.632915	Female	"Breast milk"	3.8		49	kg	156	cm	Height	Adult	"31 y.o."																														"E-waste recycling site; Parity: 2; "	2018/3/16	2018/3/16
PRA000061	SAA003735	ST003	9606			TM-11	"Homo sapiens"	human	2008							Asia	Vietnam	"Trang Minh"	20.773408	20.799126	106.608152	106.632915	Female	"Breast milk"	4.6		44	kg	156	cm	Height	Adult	"30 y.o."																														"E-waste recycling site; Parity: 2; "	2018/3/16	2018/3/16
PRA000061	SAA003736	ST003	9606			TM-12	"Homo sapiens"	human	2008							Asia	Vietnam	"Trang Minh"	20.773408	20.799126	106.608152	106.632915	Female	"Breast milk"	3.7		47	kg	155	cm	Height	Adult	"30 y.o."																														"E-waste recycling site; Parity: 2; "	2018/3/16	2018/3/16
